• Join FlightAware (Why Join?)
  • Login
  • US Flag 
05:59PM EDT


 

Airport Tracker/Info


-or-


 

Live Flight TrackerFlight Track Log ✈ SWA378 ✈ 21-May-2013 ✈ KORF - KBWI

Flight Track Log - Related Links

Times and Time Zones

All times are in EDT time to prevent confusion due to time zone crossing. See the SWA378 flight status page for this flight to view local times or setup timezone preferences in your user account.

Time Position Orientation Groundspeed Altitude Reporting Facility
EDT Latitude Longitude Course Direction KTS MPH feet Rate Location/Type
08:44PM 36.8553 -76.2408 214° Southwest 191 220 3,800  Level Washington Center
08:45PM 36.8947 -76.2878 316° Northwest 268 308 4,000 180 Climbing Washington Center
08:46PM 36.9403 -76.3508 312° West 266 306 4,200 1,860 Climbing Washington Center
08:47PM 36.9794 -76.4239 304° West 283 326 7,700 3,720 Climbing Washington Center
08:48PM 37.0289 -76.5000 309° West 283 326 11,500 3,780 Climbing Washington Center
08:49PM 37.0886 -76.5892 310° West 302 348 15,500 2,220 Climbing Washington Center
08:50PM 37.1294 -76.6808 299° West 327 376 16,000 240 Climbing Washington Center
08:51PM 37.1786 -76.7883 300° West 340 391 16,000  Level Washington Center
08:52PM 37.2256 -76.8933 299° West 345 397 16,000  Level Washington Center
08:53PM 37.2783 -77.0144 299° West 356 410 16,000  Level Washington Center
08:54PM 37.3211 -77.1039 301° West 356 410 16,000  Level Washington Center
08:55PM 37.3969 -77.2022 314° West 351 404 16,000  Level Washington Center
08:56PM 37.4669 -77.2822 318° Northwest 341 392 16,000  Level Washington Center
08:57PM 37.5539 -77.3128 344° North 328 377 16,000  Level Washington Center
08:58PM 37.6503 -77.2914 10° North 323 372 16,000  Level Washington Center
08:59PM 37.7486 -77.2700 10° North 329 379 16,000  Level Washington Center
09:00PM 37.8531 -77.2486 North 357 411 16,000  Level Washington Center
09:01PM 37.9619 -77.2275 North 372 428 16,000  Level Washington Center
09:02PM 38.0558 -77.2108 North 387 445 16,000  Level Washington Center
09:03PM 38.1647 -77.1869 10° North 387 445 16,000  Level Washington Center
09:04PM 38.2839 -77.1578 11° North 402 463 16,000 -540 Level Washington Center
09:05PM 38.3803 -77.1358 10° North 389 448 15,000 -1,620 Descending Washington Center
09:06PM 38.4606 -77.0472 41° Northeast 375 432 12,800 480 Descending Washington Center
09:07PM 38.5431 -76.9400 45° Northeast 372 428 16,000 -1,800 Climbing Washington Center
09:08PM 38.6086 -76.8669 41° Northeast 366 421 9,300 -3,540 Descending Washington Center
09:09PM 38.6697 -76.7883 45° Northeast 340 391 9,000 -180 Descending Washington Center
09:10PM 38.7206 -76.7119 50° Northeast 300 345 9,000 -600 Level Washington Center
09:11PM 38.7547 -76.6272 63° Northeast 275 316 7,800 -1,560 Descending Washington Center
09:12PM 38.8000 -76.5500 53° Northeast 279 321 6,200 -1,740 Descending Potomac TRACON
09:13PM 38.8833 -76.5500 360° North 275 316 4,500 -1,080 Descending Potomac TRACON
09:14PM 38.9500 -76.5833 339° North 272 313 4,000 -240 Descending Potomac TRACON
09:15PM 39.0000 -76.6500 314° West 270 311 4,100  Climbing Potomac TRACON
09:16PM 39.0333 -76.7333 297° West 269 310 4,100 -420 Level Potomac TRACON
09:17PM 39.0667 -76.8167 297° West 272 313 3,300 -900 Descending Potomac TRACON
09:18PM 39.1167 -76.8833 314° West 278 320 2,400 -720 Descending Potomac TRACON
09:19PM 39.1667 -76.8833 360° North 258 297 2,000 -360 Descending Potomac TRACON
09:20PM 39.1833 -76.8000 76° East 198 228 1,800 -480 Descending Potomac TRACON
09:21PM 39.1833 -76.7500 90° East 157 181 1,100 -720 Descending Potomac TRACON
09:22PM 39.1833 -76.7000 90° East 137 158 400 -720 Descending Potomac TRACON
09:24PM 39.1754 -76.6683 180° South  Level Estimated
09:31PM 39.1754 -76.6683 351° North  Level Estimated
09:32PM 39.1754 -76.6683 351° North  Level Estimated